Time;durP1;ratioP1;P1;durP2;ratioP2;P2;SDS_P1;SDS_P2;PMS_P1;PMS_P2;Temp;Humidity;BMP_temperature;BMP_pressure;BME280_temperature;BME280_humidity;BME280_pressure;Samples;Min_cycle;Max_cycle;Signal;HPM_P1;HPM_P2
2022/07/29 00:01:08;;;;;;;;;;;23.60;79.80;;;;;;4978213;28;19933;-81
2022/07/29 00:03:35;;;;;;;;;;;23.60;79.80;;;;;;4979003;28;20392;-80
2022/07/29 00:06:04;;;;;;;;;;;23.60;79.70;;;;;;4979454;28;19970;-80
2022/07/29 00:08:30;;;;;;;;;;;23.60;79.80;;;;;;4982379;28;19979;-80
2022/07/29 00:10:57;;;;;;;;;;;23.60;79.90;;;;;;4979143;28;20042;-80
2022/07/29 00:13:24;;;;;;;;;;;23.50;79.80;;;;;;4985327;28;19984;-80
2022/07/29 00:15:51;;;;;;;;;;;23.50;80.00;;;;;;4978731;28;19967;-80
2022/07/29 00:18:18;;;;;;;;;;;23.50;80.20;;;;;;4984043;28;19925;-81
2022/07/29 00:20:45;;;;;;;;;;;23.40;80.10;;;;;;4980235;28;19972;-79
2022/07/29 00:23:13;;;;;;;;;;;23.40;80.20;;;;;;4992926;28;19944;-80
2022/07/29 00:25:40;;;;;;;;;;;23.40;80.40;;;;;;4973141;28;19934;-81
2022/07/29 00:28:06;;;;;;;;;;;23.40;80.40;;;;;;4975918;28;20450;-80
2022/07/29 00:30:33;;;;;;;;;;;23.30;81.00;;;;;;4980163;28;19934;-80
2022/07/29 00:33:00;;;;;;;;;;;23.30;80.40;;;;;;4977936;28;20490;-80
2022/07/29 00:35:44;;;;;;;;;;;23.30;80.60;;;;;;4976520;28;19962;-80
2022/07/29 00:38:13;;;;;;;;;;;23.30;80.90;;;;;;4975305;28;19922;-80
2022/07/29 00:40:40;;;;;;;;;;;23.30;80.90;;;;;;4980462;28;19929;-81
2022/07/29 00:43:07;;;;;;;;;;;23.20;80.80;;;;;;4976012;28;19929;-80
2022/07/29 00:45:34;;;;;;;;;;;23.20;80.80;;;;;;4980539;28;20303;-80
2022/07/29 00:48:01;;;;;;;;;;;23.20;81.00;;;;;;4979154;28;20386;-80
2022/07/29 00:50:28;;;;;;;;;;;23.20;81.10;;;;;;4979921;28;19925;-80
2022/07/29 00:52:55;;;;;;;;;;;23.20;81.10;;;;;;4980738;28;19965;-80
2022/07/29 00:55:23;;;;;;;;;;;23.10;81.10;;;;;;4982225;28;19926;-80
2022/07/29 00:57:50;;;;;;;;;;;23.10;81.20;;;;;;4980880;28;19932;-79
2022/07/29 01:00:19;;;;;;;;;;;23.10;81.20;;;;;;4976890;28;19937;-79
2022/07/29 01:02:49;;;;;;;;;;;23.00;81.30;;;;;;4976408;28;19971;-80
2022/07/29 01:05:17;;;;;;;;;;;23.00;81.20;;;;;;4982969;28;20018;-79
2022/07/29 01:07:44;;;;;;;;;;;23.00;81.40;;;;;;4975386;28;19938;-79
2022/07/29 01:10:13;;;;;;;;;;;23.00;81.40;;;;;;4979458;28;19934;-81
2022/07/29 01:12:41;;;;;;;;;;;23.00;81.60;;;;;;4981316;28;19929;-80
2022/07/29 01:15:09;;;;;;;;;;;23.00;81.80;;;;;;4979165;28;19961;-79
2022/07/29 01:17:37;;;;;;;;;;;22.90;81.60;;;;;;4982625;28;20380;-80
2022/07/29 01:20:07;;;;;;;;;;;22.90;81.60;;;;;;4977854;28;19971;-80
2022/07/29 01:22:38;;;;;;;;;;;22.90;81.70;;;;;;4975829;28;20356;-80
2022/07/29 01:25:13;;;;;;;;;;;22.80;81.80;;;;;;4981844;28;20193;-79
2022/07/29 01:27:46;;;;;;;;;;;22.80;82.00;;;;;;4977095;28;19972;-80
2022/07/29 01:30:14;;;;;;;;;;;22.80;81.80;;;;;;4981187;28;19934;-80
2022/07/29 01:32:41;;;;;;;;;;;22.80;81.90;;;;;;4979482;28;19930;-81
2022/07/29 01:35:12;;;;;;;;;;;22.80;82.00;;;;;;4979430;28;19934;-80
2022/07/29 01:37:40;;;;;;;;;;;22.70;81.90;;;;;;4979381;28;20396;-79
2022/07/29 01:40:09;;;;;;;;;;;22.70;82.00;;;;;;4980188;28;19961;-79
2022/07/29 01:42:37;;;;;;;;;;;22.70;82.00;;;;;;4980268;28;19945;-80
2022/07/29 01:45:11;;;;;;;;;;;22.60;81.90;;;;;;4979122;28;20048;-80
2022/07/29 01:47:41;;;;;;;;;;;22.60;81.90;;;;;;4981868;28;19933;-79
2022/07/29 01:50:09;;;;;;;;;;;22.60;82.00;;;;;;4977991;28;19926;-81
2022/07/29 01:52:42;;;;;;;;;;;22.60;82.20;;;;;;4977224;28;19930;-80
2022/07/29 01:55:11;;;;;;;;;;;22.60;82.10;;;;;;4978138;28;20502;-80
2022/07/29 01:57:39;;;;;;;;;;;22.60;82.20;;;;;;4974872;28;19961;-81
2022/07/29 02:00:07;;;;;;;;;;;22.50;82.00;;;;;;4978165;28;19933;-80
2022/07/29 02:02:42;;;;;;;;;;;22.50;82.30;;;;;;4976461;28;19934;-79
2022/07/29 02:05:11;;;;;;;;;;;22.50;82.40;;;;;;5059917;28;20030;-80
2022/07/29 02:07:38;;;;;;;;;;;22.40;82.30;;;;;;4981869;28;20024;-79
2022/07/29 02:10:06;;;;;;;;;;;22.40;82.50;;;;;;4978286;28;20016;-79
2022/07/29 02:12:35;;;;;;;;;;;22.40;82.60;;;;;;4981687;28;20465;-80
2022/07/29 02:15:03;;;;;;;;;;;22.40;82.80;;;;;;4984766;28;20007;-79
2022/07/29 02:17:33;;;;;;;;;;;22.40;82.80;;;;;;4974986;28;19926;-80
2022/07/29 02:20:03;;;;;;;;;;;22.40;82.80;;;;;;4981307;28;20463;-79
2022/07/29 02:22:32;;;;;;;;;;;22.40;82.80;;;;;;4984885;28;19948;-80
2022/07/29 02:24:59;;;;;;;;;;;22.40;82.90;;;;;;4980369;28;19994;-80
2022/07/29 02:27:27;;;;;;;;;;;22.30;83.00;;;;;;4976678;28;20312;-80
2022/07/29 02:29:54;;;;;;;;;;;22.30;83.00;;;;;;4977419;28;19934;-79
2022/07/29 02:32:22;;;;;;;;;;;22.30;83.30;;;;;;4981783;28;20423;-80
2022/07/29 02:34:49;;;;;;;;;;;22.30;83.30;;;;;;4979014;28;19934;-79
2022/07/29 02:37:18;;;;;;;;;;;22.20;83.40;;;;;;4973424;28;19948;-79
2022/07/29 02:39:46;;;;;;;;;;;22.20;83.40;;;;;;4980450;28;19934;-80
2022/07/29 02:42:14;;;;;;;;;;;22.20;83.40;;;;;;4982472;28;19925;-80
2022/07/29 02:44:41;;;;;;;;;;;22.20;83.50;;;;;;4977131;28;19961;-80
2022/07/29 02:47:11;;;;;;;;;;;22.20;83.50;;;;;;4982320;28;19975;-80
2022/07/29 02:49:39;;;;;;;;;;;22.10;83.50;;;;;;4976748;28;19944;-79
2022/07/29 02:52:09;;;;;;;;;;;22.10;83.70;;;;;;4978500;28;20345;-79
2022/07/29 02:54:40;;;;;;;;;;;22.10;83.70;;;;;;4978855;28;20012;-79
2022/07/29 02:57:10;;;;;;;;;;;22.10;83.90;;;;;;4981223;28;20033;-79
2022/07/29 02:59:37;;;;;;;;;;;22.00;84.00;;;;;;4979663;28;20362;-79
2022/07/29 03:02:05;;;;;;;;;;;22.00;84.20;;;;;;4975686;28;20026;-80
2022/07/29 03:04:33;;;;;;;;;;;22.00;84.30;;;;;;4981796;28;20222;-80
2022/07/29 03:07:01;;;;;;;;;;;22.00;84.40;;;;;;4971658;28;19940;-80
2022/07/29 03:09:28;;;;;;;;;;;22.00;84.40;;;;;;4979812;28;19926;-80
2022/07/29 03:11:57;;;;;;;;;;;21.90;84.50;;;;;;4973272;28;19984;-80
2022/07/29 03:14:25;;;;;;;;;;;21.90;84.50;;;;;;4985045;28;19987;-79
2022/07/29 03:16:52;;;;;;;;;;;21.90;84.50;;;;;;4975753;28;19933;-81
2022/07/29 03:19:20;;;;;;;;;;;21.90;84.50;;;;;;4980797;28;19949;-80
2022/07/29 03:21:47;;;;;;;;;;;21.90;84.60;;;;;;4975714;28;20484;-80
2022/07/29 03:24:25;;;;;;;;;;;21.80;84.40;;;;;;4981466;28;20028;-79
2022/07/29 03:26:52;;;;;;;;;;;21.80;84.50;;;;;;4978568;28;19955;-79
2022/07/29 03:29:20;;;;;;;;;;;21.80;84.60;;;;;;4979841;28;19979;-80
2022/07/29 03:31:47;;;;;;;;;;;21.80;84.60;;;;;;4976071;28;20412;-79
2022/07/29 03:34:13;;;;;;;;;;;21.70;84.30;;;;;;4977580;28;19926;-80
2022/07/29 03:36:40;;;;;;;;;;;21.70;84.20;;;;;;4980003;28;19987;-80
2022/07/29 03:39:08;;;;;;;;;;;21.70;84.30;;;;;;4980247;28;19932;-80
2022/07/29 03:41:36;;;;;;;;;;;21.70;84.30;;;;;;4979410;28;19952;-80
2022/07/29 03:44:03;;;;;;;;;;;21.70;84.40;;;;;;4980414;28;20300;-79
2022/07/29 03:46:32;;;;;;;;;;;21.60;84.20;;;;;;4978550;28;19933;-79
2022/07/29 03:49:00;;;;;;;;;;;21.60;84.30;;;;;;4977174;28;19930;-80
2022/07/29 03:51:27;;;;;;;;;;;21.60;84.00;;;;;;4969956;28;19930;-80
2022/07/29 03:53:54;;;;;;;;;;;21.60;83.90;;;;;;4978896;28;19951;-80
2022/07/29 03:56:22;;;;;;;;;;;21.50;84.10;;;;;;4981196;28;19980;-79
2022/07/29 03:58:50;;;;;;;;;;;21.50;83.90;;;;;;4979787;28;19979;-78
2022/07/29 04:01:18;;;;;;;;;;;21.50;84.00;;;;;;4980367;28;19933;-79
2022/07/29 04:03:47;;;;;;;;;;;21.40;83.70;;;;;;4981396;28;19972;-79
2022/07/29 04:06:14;;;;;;;;;;;21.40;83.70;;;;;;4974360;28;19934;-79
2022/07/29 04:08:40;;;;;;;;;;;21.70;84.00;;;;;;4981764;28;19930;-78
2022/07/29 04:11:07;;;;;;;;;;;21.40;83.70;;;;;;4974753;28;19926;-80
2022/07/29 04:13:35;;;;;;;;;;;21.40;83.60;;;;;;4976583;28;20194;-79
2022/07/29 04:16:02;;;;;;;;;;;21.30;83.70;;;;;;4972979;28;19940;-78
2022/07/29 04:18:28;;;;;;;;;;;21.30;84.00;;;;;;4981596;28;20299;-79
2022/07/29 04:20:58;;;;;;;;;;;21.30;84.00;;;;;;4982608;28;20014;-78
2022/07/29 04:23:26;;;;;;;;;;;21.30;84.10;;;;;;4973473;28;19930;-79
2022/07/29 04:25:52;;;;;;;;;;;21.20;84.00;;;;;;4978774;28;19961;-78
2022/07/29 04:28:19;;;;;;;;;;;21.20;84.10;;;;;;4983871;28;20047;-79
2022/07/29 04:30:46;;;;;;;;;;;21.20;83.90;;;;;;4978930;28;20200;-79
2022/07/29 04:33:13;;;;;;;;;;;21.20;83.90;;;;;;4978449;28;19926;-79
2022/07/29 04:35:40;;;;;;;;;;;21.10;83.90;;;;;;4975214;28;19948;-80
2022/07/29 04:38:08;;;;;;;;;;;21.10;84.00;;;;;;4974153;28;20000;-79
2022/07/29 04:40:35;;;;;;;;;;;21.10;83.90;;;;;;4974321;28;19930;-79
2022/07/29 04:43:02;;;;;;;;;;;21.10;83.80;;;;;;4976125;28;19930;-79
2022/07/29 04:45:29;;;;;;;;;;;21.10;83.60;;;;;;4974580;28;19930;-79
2022/07/29 04:47:56;;;;;;;;;;;21.00;83.70;;;;;;4979800;28;19926;-79
2022/07/29 04:50:23;;;;;;;;;;;21.00;83.50;;;;;;4973997;28;19925;-79
2022/07/29 04:52:49;;;;;;;;;;;21.00;83.70;;;;;;4973565;28;20012;-79
2022/07/29 04:55:18;;;;;;;;;;;21.00;83.70;;;;;;4979829;28;19987;-79
2022/07/29 04:57:44;;;;;;;;;;;20.90;83.80;;;;;;4976121;28;19934;-79
2022/07/29 05:00:12;;;;;;;;;;;20.90;84.10;;;;;;4976432;28;19975;-81
2022/07/29 05:02:39;;;;;;;;;;;20.90;84.00;;;;;;4975601;28;19925;-78
2022/07/29 05:05:06;;;;;;;;;;;;;;;;;;4976689;28;19950;-79
2022/07/29 05:07:32;;;;;;;;;;;20.90;83.70;;;;;;4975749;28;19925;-79
2022/07/29 05:09:59;;;;;;;;;;;20.90;84.20;;;;;;4978450;28;19925;-79
2022/07/29 05:12:28;;;;;;;;;;;20.90;84.40;;;;;;4976944;28;19926;-79
2022/07/29 05:14:55;;;;;;;;;;;20.80;84.50;;;;;;4981013;28;19930;-80
2022/07/29 05:17:22;;;;;;;;;;;20.80;84.50;;;;;;4972722;28;20413;-79
2022/07/29 05:19:51;;;;;;;;;;;20.90;84.60;;;;;;4979998;28;20404;-80
2022/07/29 05:22:18;;;;;;;;;;;20.80;84.50;;;;;;4974863;28;19926;-78
2022/07/29 05:24:44;;;;;;;;;;;20.80;84.60;;;;;;4975056;28;19930;-78
2022/07/29 05:27:11;;;;;;;;;;;20.80;84.50;;;;;;4971792;28;19926;-79
2022/07/29 05:29:39;;;;;;;;;;;20.80;84.30;;;;;;4979756;28;20638;-78
2022/07/29 05:32:06;;;;;;;;;;;20.80;84.20;;;;;;4976053;28;19939;-78
2022/07/29 05:34:33;;;;;;;;;;;20.70;84.10;;;;;;4977898;28;19927;-78
2022/07/29 05:37:00;;;;;;;;;;;20.70;83.90;;;;;;4977703;28;19926;-76
2022/07/29 05:39:27;;;;;;;;;;;20.70;83.80;;;;;;4973215;28;19973;-77
2022/07/29 05:41:54;;;;;;;;;;;20.70;83.80;;;;;;4973295;28;19926;-76
2022/07/29 05:44:21;;;;;;;;;;;20.70;83.70;;;;;;4977009;28;20023;-77
2022/07/29 05:46:49;;;;;;;;;;;20.70;83.60;;;;;;4976101;28;19925;-76
2022/07/29 05:49:16;;;;;;;;;;;20.70;83.60;;;;;;4975228;28;19926;-76
2022/07/29 05:51:43;;;;;;;;;;;20.70;83.50;;;;;;4972614;28;20345;-76
2022/07/29 05:54:10;;;;;;;;;;;20.60;83.20;;;;;;4972435;28;19937;-78
2022/07/29 05:56:37;;;;;;;;;;;20.60;83.40;;;;;;4965926;28;19934;-76
2022/07/29 05:59:04;;;;;;;;;;;20.70;85.10;;;;;;4973892;28;19934;-74
2022/07/29 06:01:31;;;;;;;;;;;20.70;86.00;;;;;;4978211;28;19930;-76
2022/07/29 06:03:59;;;;;;;;;;;20.70;86.00;;;;;;4979760;28;19929;-75
2022/07/29 06:06:26;;;;;;;;;;;20.60;85.70;;;;;;4979991;28;19937;-75
2022/07/29 06:08:53;;;;;;;;;;;20.60;85.40;;;;;;4979681;28;19926;-75
2022/07/29 06:11:20;;;;;;;;;;;20.60;85.20;;;;;;4979596;28;20026;-76
2022/07/29 06:13:47;;;;;;;;;;;20.60;85.10;;;;;;4979810;28;20341;-75
2022/07/29 06:16:14;;;;;;;;;;;20.60;85.00;;;;;;4977707;28;20315;-76
2022/07/29 06:18:40;;;;;;;;;;;20.60;85.10;;;;;;4986387;28;19933;-76
2022/07/29 06:21:11;;;;;;;;;;;20.60;85.10;;;;;;4977543;28;20299;-76
2022/07/29 06:23:38;;;;;;;;;;;20.60;85.10;;;;;;4980417;28;19962;-74
2022/07/29 06:26:05;;;;;;;;;;;20.60;85.00;;;;;;4976032;28;19933;-76
2022/07/29 06:28:32;;;;;;;;;;;20.60;84.90;;;;;;4980208;28;20304;-76
2022/07/29 06:30:59;;;;;;;;;;;20.60;84.80;;;;;;4975138;28;20028;-76
2022/07/29 06:33:26;;;;;;;;;;;20.60;84.90;;;;;;4981662;28;19934;-76
2022/07/29 06:35:53;;;;;;;;;;;20.60;85.00;;;;;;4980677;28;20016;-75
2022/07/29 06:38:21;;;;;;;;;;;20.60;85.00;;;;;;4980797;28;19933;-76
2022/07/29 06:41:04;;;;;;;;;;;20.60;85.00;;;;;;4978888;28;19932;-75
2022/07/29 06:43:33;;;;;;;;;;;20.60;84.70;;;;;;4981496;28;20041;-75
2022/07/29 06:46:01;;;;;;;;;;;20.60;84.60;;;;;;4976680;28;19925;-76
2022/07/29 06:48:27;;;;;;;;;;;20.60;84.30;;;;;;4981402;28;20004;-76
2022/07/29 06:50:54;;;;;;;;;;;20.60;84.20;;;;;;4977799;28;20091;-75
2022/07/29 06:53:23;;;;;;;;;;;20.60;84.20;;;;;;4983213;28;19930;-75
2022/07/29 06:55:50;;;;;;;;;;;20.60;84.20;;;;;;4980675;28;19932;-76
2022/07/29 06:58:19;;;;;;;;;;;20.60;84.00;;;;;;4975448;28;19941;-76
2022/07/29 07:00:55;;;;;;;;;;;20.60;84.10;;;;;;4974165;28;19934;-76
2022/07/29 07:03:22;;;;;;;;;;;20.60;84.00;;;;;;4981620;28;20094;-76
2022/07/29 07:05:49;;;;;;;;;;;20.60;84.00;;;;;;4981370;28;20344;-75
2022/07/29 07:08:16;;;;;;;;;;;20.60;83.90;;;;;;4976555;28;19933;-75
2022/07/29 07:10:45;;;;;;;;;;;20.60;83.90;;;;;;4975000;28;19933;-76
2022/07/29 07:13:12;;;;;;;;;;;20.60;83.80;;;;;;4981633;28;20372;-76
2022/07/29 07:15:39;;;;;;;;;;;20.60;83.20;;;;;;4982534;28;19932;-75
2022/07/29 07:18:06;;;;;;;;;;;20.60;83.60;;;;;;4967674;28;19932;-75
2022/07/29 07:20:33;;;;;;;;;;;20.60;83.20;;;;;;4981415;28;19926;-76
2022/07/29 07:23:00;;;;;;;;;;;20.60;83.30;;;;;;4980808;28;20388;-76
2022/07/29 07:25:27;;;;;;;;;;;20.60;83.40;;;;;;4981713;28;20402;-75
2022/07/29 07:27:56;;;;;;;;;;;20.60;83.50;;;;;;4977382;28;20451;-75
2022/07/29 07:30:23;;;;;;;;;;;20.60;83.50;;;;;;4978942;28;19964;-76
2022/07/29 07:32:49;;;;;;;;;;;20.60;83.20;;;;;;4978179;28;19930;-76
2022/07/29 07:35:17;;;;;;;;;;;20.60;83.10;;;;;;4970614;28;20353;-75
2022/07/29 07:37:43;;;;;;;;;;;20.60;83.20;;;;;;5054316;22;19937;-74
2022/07/29 07:40:12;;;;;;;;;;;20.60;83.10;;;;;;5055620;28;20478;-73
2022/07/29 07:42:39;;;;;;;;;;;20.60;83.20;;;;;;5060042;28;19925;-74
2022/07/29 07:45:09;;;;;;;;;;;20.60;83.10;;;;;;5054072;28;19954;-75
2022/07/29 07:47:36;;;;;;;;;;;20.60;82.80;;;;;;5054137;28;19928;-74
2022/07/29 07:50:03;;;;;;;;;;;20.60;82.90;;;;;;5053603;28;19934;-74
2022/07/29 07:52:30;;;;;;;;;;;20.60;83.00;;;;;;5030244;28;19924;-75
2022/07/29 07:54:57;;;;;;;;;;;20.60;83.30;;;;;;5049717;28;19932;-75
2022/07/29 07:57:24;;;;;;;;;;;20.60;83.40;;;;;;5052482;28;19932;-73
2022/07/29 07:59:51;;;;;;;;;;;20.60;83.30;;;;;;5045819;28;20017;-75
2022/07/29 08:02:19;;;;;;;;;;;20.60;83.20;;;;;;5050684;28;19932;-74
2022/07/29 08:04:46;;;;;;;;;;;20.60;85.70;;;;;;5048105;28;19931;-74
2022/07/29 08:07:14;;;;;;;;;;;20.60;84.60;;;;;;5052171;28;19932;-74
2022/07/29 08:09:41;;;;;;;;;;;20.60;86.50;;;;;;5053436;28;20028;-75
2022/07/29 08:12:08;;;;;;;;;;;20.60;87.50;;;;;;5053304;28;19933;-75
2022/07/29 08:14:35;;;;;;;;;;;20.70;87.90;;;;;;5036740;28;20027;-76
2022/07/29 08:17:02;;;;;;;;;;;20.70;87.80;;;;;;5056742;28;19925;-76
2022/07/29 08:19:30;;;;;;;;;;;20.70;87.50;;;;;;5054460;28;20011;-75
2022/07/29 08:21:57;;;;;;;;;;;20.70;87.20;;;;;;5055075;28;20286;-76
2022/07/29 08:27:09;;;;;;;;;;;20.60;85.80;;;;;;5050694;28;19928;-75
2022/07/29 08:29:36;;;;;;;;;;;20.70;85.60;;;;;;5028022;28;19935;-74
2022/07/29 08:32:03;;;;;;;;;;;20.70;86.00;;;;;;5031485;28;19963;-75
2022/07/29 08:34:31;;;;;;;;;;;20.70;85.80;;;;;;5053867;28;20023;-74
2022/07/29 08:36:59;;;;;;;;;;;20.70;86.30;;;;;;5052895;28;19928;-74
2022/07/29 08:39:26;;;;;;;;;;;20.70;86.50;;;;;;5057058;28;19974;-74
2022/07/29 08:41:52;;;;;;;;;;;20.70;86.70;;;;;;5053717;28;19933;-74
2022/07/29 08:44:21;;;;;;;;;;;20.70;87.40;;;;;;5055743;28;20552;-76
2022/07/29 08:46:49;;;;;;;;;;;20.70;87.50;;;;;;5051011;28;20011;-75
2022/07/29 08:49:16;;;;;;;;;;;20.70;87.50;;;;;;5040821;28;19943;-75
2022/07/29 08:51:44;;;;;;;;;;;20.70;87.90;;;;;;5053154;28;19978;-74
2022/07/29 08:54:12;;;;;;;;;;;20.80;88.00;;;;;;5057388;28;19934;-76
2022/07/29 08:56:39;;;;;;;;;;;20.70;88.40;;;;;;5053443;28;20391;-75
2022/07/29 08:59:06;;;;;;;;;;;20.70;88.10;;;;;;5058053;28;20572;-76
2022/07/29 09:01:34;;;;;;;;;;;20.80;88.50;;;;;;5046575;28;20499;-76
2022/07/29 09:04:02;;;;;;;;;;;20.80;88.50;;;;;;5057173;28;20276;-75
2022/07/29 09:06:33;;;;;;;;;;;20.80;88.30;;;;;;5061905;28;19924;-75
2022/07/29 09:09:01;;;;;;;;;;;20.80;88.00;;;;;;5052059;28;19929;-77
2022/07/29 09:11:28;;;;;;;;;;;20.80;87.50;;;;;;5062761;28;19975;-76
2022/07/29 09:13:55;;;;;;;;;;;20.80;86.70;;;;;;5055699;28;19955;-77
2022/07/29 09:16:22;;;;;;;;;;;20.80;87.70;;;;;;5062069;28;20365;-76
2022/07/29 09:18:51;;;;;;;;;;;20.80;88.00;;;;;;5059756;28;19947;-77
2022/07/29 09:24:14;;;;;;;;;;;20.90;88.20;;;;;;5028964;28;19920;-76
2022/07/29 09:26:41;;;;;;;;;;;20.90;88.30;;;;;;5058460;28;19933;-76
2022/07/29 09:29:09;;;;;;;;;;;20.90;88.20;;;;;;5057545;28;19986;-76
2022/07/29 09:31:37;;;;;;;;;;;20.90;88.00;;;;;;5061390;28;20047;-76
2022/07/29 09:34:04;;;;;;;;;;;20.90;88.00;;;;;;5062265;28;19936;-76
2022/07/29 09:36:32;;;;;;;;;;;20.90;88.40;;;;;;5058510;28;19934;-76
2022/07/29 09:38:59;;;;;;;;;;;21.00;88.70;;;;;;5056626;28;19925;-76
2022/07/29 09:41:28;;;;;;;;;;;21.00;88.30;;;;;;5058415;28;19967;-76
2022/07/29 09:43:55;;;;;;;;;;;21.00;88.50;;;;;;5057996;28;19933;-76
2022/07/29 09:46:22;;;;;;;;;;;21.00;88.20;;;;;;5042663;28;19931;-75
2022/07/29 09:49:04;;;;;;;;;;;21.00;88.50;;;;;;5053453;28;19924;-77
2022/07/29 09:51:31;;;;;;;;;;;21.00;88.60;;;;;;5062021;28;19970;-77
2022/07/29 09:54:00;;;;;;;;;;;21.00;88.70;;;;;;5053305;28;19972;-77
2022/07/29 09:56:40;;;;;;;;;;;21.00;88.80;;;;;;5048641;28;19935;-76
2022/07/29 09:59:07;;;;;;;;;;;21.10;88.80;;;;;;5059859;28;19925;-77
2022/07/29 10:01:34;;;;;;;;;;;21.10;89.00;;;;;;5055427;28;19933;-75
2022/07/29 10:04:01;;;;;;;;;;;21.10;88.60;;;;;;5061144;28;20027;-76
2022/07/29 10:06:28;;;;;;;;;;;21.10;88.70;;;;;;5042339;28;19928;-75
2022/07/29 10:08:55;;;;;;;;;;;21.10;88.20;;;;;;5061373;28;19931;-75
2022/07/29 10:11:22;;;;;;;;;;;21.10;88.00;;;;;;5055413;28;20478;-74
2022/07/29 10:13:50;;;;;;;;;;;21.10;88.60;;;;;;5057559;28;19928;-76
2022/07/29 10:16:17;;;;;;;;;;;21.10;87.20;;;;;;5055050;28;20411;-76
2022/07/29 10:18:46;;;;;;;;;;;21.20;88.00;;;;;;5041652;28;19925;-75
2022/07/29 10:21:13;;;;;;;;;;;21.20;88.20;;;;;;5055773;28;19924;-76
2022/07/29 10:23:40;;;;;;;;;;;21.20;87.90;;;;;;5062647;28;19954;-76
2022/07/29 10:26:07;;;;;;;;;;;21.20;87.10;;;;;;5043552;28;19932;-75
2022/07/29 10:28:35;;;;;;;;;;;21.20;87.20;;;;;;5063667;28;19928;-76
2022/07/29 10:31:06;;;;;;;;;;;21.30;88.10;;;;;;5049883;28;20390;-75
2022/07/29 10:33:42;;;;;;;;;;;21.30;88.50;;;;;;5035300;28;19981;-74
2022/07/29 10:36:18;;;;;;;;;;;21.30;87.60;;;;;;5045440;28;20468;-76
2022/07/29 10:38:50;;;;;;;;;;;21.30;87.20;;;;;;5048748;28;19928;-74
2022/07/29 10:41:27;;;;;;;;;;;21.30;87.00;;;;;;5053402;28;19991;-75
2022/07/29 10:43:55;;;;;;;;;;;21.30;87.30;;;;;;5046066;28;19967;-75
2022/07/29 10:46:24;;;;;;;;;;;21.30;88.30;;;;;;5044951;28;20459;-76
2022/07/29 10:49:11;;;;;;;;;;;21.40;88.80;;;;;;5056218;28;19968;-77
2022/07/29 10:51:57;;;;;;;;;;;21.40;88.90;;;;;;5057468;28;20452;-76
2022/07/29 10:54:37;;;;;;;;;;;21.40;89.20;;;;;;5055453;28;19928;-77
2022/07/29 10:57:11;;;;;;;;;;;21.40;89.10;;;;;;5059543;28;20015;-77
2022/07/29 10:59:38;;;;;;;;;;;21.40;89.30;;;;;;5040329;28;19968;-76
2022/07/29 11:02:32;;;;;;;;;;;21.50;88.80;;;;;;5051355;28;19925;-77
2022/07/29 11:05:03;;;;;;;;;;;21.50;89.00;;;;;;5050041;28;19976;-77
2022/07/29 11:07:30;;;;;;;;;;;21.50;88.80;;;;;;5051409;28;20417;-76
2022/07/29 11:10:15;;;;;;;;;;;21.50;88.80;;;;;;5055057;28;19931;-76
2022/07/29 11:12:49;;;;;;;;;;;21.50;88.70;;;;;;5052853;28;19936;-77
2022/07/29 11:15:18;;;;;;;;;;;21.50;88.50;;;;;;5057049;28;20020;-77
2022/07/29 11:18:05;;;;;;;;;;;21.60;88.00;;;;;;5061470;28;19931;-76
2022/07/29 11:20:34;;;;;;;;;;;21.60;87.60;;;;;;5056764;28;20438;-76
2022/07/29 11:25:30;;;;;;;;;;;21.60;87.40;;;;;;4980634;22;19969;-76
2022/07/29 11:28:13;;;;;;;;;;;21.60;87.30;;;;;;4993764;28;20306;-77
2022/07/29 11:30:50;;;;;;;;;;;21.60;87.10;;;;;;5050950;28;20667;-77
2022/07/29 11:33:32;;;;;;;;;;;21.60;86.80;;;;;;4980980;28;19933;-77
2022/07/29 11:36:09;;;;;;;;;;;21.60;86.80;;;;;;4971127;28;19929;-76
2022/07/29 11:38:36;;;;;;;;;;;21.70;87.10;;;;;;4969665;28;20524;-76
2022/07/29 11:41:24;;;;;;;;;;;21.70;87.00;;;;;;4981960;28;20566;-76
2022/07/29 11:43:52;;;;;;;;;;;21.70;86.80;;;;;;4978063;28;20398;-77
2022/07/29 11:46:39;;;;;;;;;;;21.70;86.50;;;;;;5043607;28;19925;-78
2022/07/29 11:49:08;;;;;;;;;;;21.70;86.40;;;;;;4983498;28;19932;-75
2022/07/29 11:51:35;;;;;;;;;;;21.70;86.40;;;;;;4984953;28;19988;-77
2022/07/29 11:54:03;;;;;;;;;;;21.70;86.30;;;;;;4977171;28;20553;-75
2022/07/29 11:56:31;;;;;;;;;;;21.80;86.30;;;;;;5039076;28;19945;-75
2022/07/29 11:59:03;;;;;;;;;;;21.80;86.00;;;;;;4979649;28;20335;-75
2022/07/29 12:01:31;;;;;;;;;;;21.80;86.00;;;;;;4981188;28;19926;-75
2022/07/29 12:04:03;;;;;;;;;;;21.80;85.80;;;;;;5036358;28;19941;-76
2022/07/29 12:06:31;;;;;;;;;;;21.80;85.80;;;;;;4980726;28;19926;-76
2022/07/29 12:08:58;;;;;;;;;;;21.80;85.70;;;;;;4986982;28;19932;-75
2022/07/29 12:11:25;;;;;;;;;;;21.80;85.60;;;;;;4984434;28;20020;-75
2022/07/29 12:13:52;;;;;;;;;;;21.80;85.70;;;;;;4974785;28;19933;-75
2022/07/29 12:16:19;;;;;;;;;;;21.90;85.70;;;;;;4981505;28;19933;-75
2022/07/29 12:18:55;;;;;;;;;;;21.90;85.70;;;;;;4973130;28;20399;-75
2022/07/29 12:21:22;;;;;;;;;;;21.90;85.60;;;;;;4992479;28;19926;-76
2022/07/29 12:23:55;;;;;;;;;;;21.90;85.70;;;;;;4973837;28;19940;-75
2022/07/29 12:26:22;;;;;;;;;;;21.90;85.70;;;;;;5031732;28;19983;-74
2022/07/29 12:28:49;;;;;;;;;;;22.00;85.70;;;;;;4982705;28;20766;-73
2022/07/29 12:31:16;;;;;;;;;;;22.00;85.60;;;;;;4974774;28;20312;-72
2022/07/29 12:33:43;;;;;;;;;;;22.00;85.50;;;;;;5039132;28;20009;-75
2022/07/29 12:36:10;;;;;;;;;;;22.00;85.50;;;;;;4982650;28;19969;-74
2022/07/29 12:38:37;;;;;;;;;;;22.10;86.10;;;;;;4982748;28;19971;-75
2022/07/29 12:41:05;;;;;;;;;;;22.10;85.70;;;;;;4978619;28;20339;-75
2022/07/29 12:43:32;;;;;;;;;;;22.10;85.70;;;;;;4974736;28;19940;-75
2022/07/29 12:46:12;;;;;;;;;;;22.20;85.90;;;;;;5048045;28;20019;-76
2022/07/29 12:48:40;;;;;;;;;;;22.20;86.00;;;;;;4973962;28;19979;-74
2022/07/29 12:51:07;;;;;;;;;;;22.20;86.00;;;;;;4976896;28;20615;-74
2022/07/29 12:53:34;;;;;;;;;;;22.30;86.10;;;;;;5041284;28;19948;-74
2022/07/29 12:56:02;;;;;;;;;;;22.30;86.00;;;;;;4980593;28;20346;-75
2022/07/29 12:58:31;;;;;;;;;;;22.40;87.40;;;;;;4971679;28;19937;-74
2022/07/29 13:01:02;;;;;;;;;;;22.60;87.40;;;;;;5050041;28;20041;-74
2022/07/29 13:03:30;;;;;;;;;;;22.60;86.90;;;;;;4985129;28;19926;-76
2022/07/29 13:05:56;;;;;;;;;;;22.70;86.30;;;;;;4978394;28;19945;-76
2022/07/29 13:08:23;;;;;;;;;;;22.70;85.30;;;;;;4979100;28;21593;-74
2022/07/29 13:10:50;;;;;;;;;;;22.70;85.30;;;;;;4975681;28;20021;-75
2022/07/29 13:13:17;;;;;;;;;;;22.70;84.80;;;;;;4989103;28;19936;-74
2022/07/29 13:15:47;;;;;;;;;;;22.70;85.20;;;;;;4982182;28;20384;-75
2022/07/29 13:18:30;;;;;;;;;;;22.70;85.40;;;;;;5049764;28;19929;-75
2022/07/29 13:20:57;;;;;;;;;;;22.70;85.60;;;;;;4980015;28;20295;-75
2022/07/29 13:23:24;;;;;;;;;;;22.80;85.60;;;;;;4987185;28;20020;-74
2022/07/29 13:25:50;;;;;;;;;;;22.80;85.60;;;;;;4986497;28;20383;-74
2022/07/29 13:28:17;;;;;;;;;;;22.80;85.60;;;;;;4979382;28;19945;-73
2022/07/29 13:30:46;;;;;;;;;;;22.80;85.20;;;;;;4985222;28;20442;-75
2022/07/29 13:33:13;;;;;;;;;;;22.90;85.10;;;;;;4987979;28;19961;-75
2022/07/29 13:35:40;;;;;;;;;;;22.90;86.70;;;;;;5048706;28;20461;-74
2022/07/29 13:38:07;;;;;;;;;;;22.70;88.00;;;;;;4988714;28;19930;-73
2022/07/29 13:40:35;;;;;;;;;;;22.70;87.40;;;;;;4985818;28;19965;-74
2022/07/29 13:43:02;;;;;;;;;;;22.80;87.10;;;;;;4977980;28;19934;-73
2022/07/29 13:45:28;;;;;;;;;;;22.80;87.00;;;;;;4990784;28;20063;-75
2022/07/29 13:47:57;;;;;;;;;;;22.80;86.90;;;;;;5049284;28;20127;-74
2022/07/29 13:50:23;;;;;;;;;;;22.80;86.70;;;;;;4988669;28;19926;-74
2022/07/29 13:52:51;;;;;;;;;;;22.70;86.90;;;;;;4977545;28;19930;-75
2022/07/29 13:55:17;;;;;;;;;;;22.70;87.30;;;;;;4981950;28;19926;-75
2022/07/29 13:57:44;;;;;;;;;;;22.70;87.90;;;;;;4988735;28;20015;-75
2022/07/29 14:00:12;;;;;;;;;;;22.70;88.60;;;;;;4969702;28;19926;-72
2022/07/29 14:02:39;;;;;;;;;;;22.70;88.90;;;;;;4979393;28;19926;-72
2022/07/29 14:05:09;;;;;;;;;;;22.60;89.20;;;;;;5039386;22;21828;-76
2022/07/29 14:07:36;;;;;;;;;;;22.60;89.90;;;;;;4976489;28;20270;-77
2022/07/29 14:10:03;;;;;;;;;;;22.60;90.00;;;;;;4971290;28;20031;-78
2022/07/29 14:12:30;;;;;;;;;;;22.60;90.10;;;;;;4979087;28;19958;-78
2022/07/29 14:14:57;;;;;;;;;;;22.60;90.20;;;;;;4972154;28;19956;-78
2022/07/29 14:17:24;;;;;;;;;;;22.50;90.20;;;;;;5048714;28;19926;-77
2022/07/29 14:19:51;;;;;;;;;;;22.50;90.30;;;;;;5037291;28;20402;-78
2022/07/29 14:22:19;;;;;;;;;;;22.50;90.40;;;;;;4974056;28;23124;-77
2022/07/29 14:24:46;;;;;;;;;;;22.40;90.40;;;;;;5037807;28;19938;-77
2022/07/29 14:27:13;;;;;;;;;;;22.40;90.50;;;;;;4982179;28;20084;-78
2022/07/29 14:29:40;;;;;;;;;;;22.40;90.40;;;;;;4984883;28;19975;-77
2022/07/29 14:32:07;;;;;;;;;;;22.40;90.50;;;;;;4977257;28;19930;-78
2022/07/29 14:34:34;;;;;;;;;;;22.40;90.70;;;;;;4978643;28;19936;-77